sensor_id;sensor_type;location;lat;lon;timestamp;P1;durP1;ratioP1;P2;durP2;ratioP2
46391;SDS011;32098;49.448;7.904;2023-09-08T00:02:13;8.73;;;7.10;;
46391;SDS011;32098;49.448;7.904;2023-09-08T00:04:40;7.90;;;6.80;;
46391;SDS011;32098;49.448;7.904;2023-09-08T00:07:06;8.93;;;6.60;;
46391;SDS011;32098;49.448;7.904;2023-09-08T00:09:33;8.02;;;6.97;;
46391;SDS011;32098;49.448;7.904;2023-09-08T00:12:00;8.68;;;7.18;;
46391;SDS011;32098;49.448;7.904;2023-09-08T00:14:27;7.65;;;6.70;;
46391;SDS011;32098;49.448;7.904;2023-09-08T00:16:54;7.35;;;6.65;;
46391;SDS011;32098;49.448;7.904;2023-09-08T00:19:21;7.70;;;6.38;;
46391;SDS011;32098;49.448;7.904;2023-09-08T00:21:49;7.18;;;6.47;;
46391;SDS011;32098;49.448;7.904;2023-09-08T00:24:16;6.68;;;6.05;;
46391;SDS011;32098;49.448;7.904;2023-09-08T00:26:44;7.57;;;5.78;;
46391;SDS011;32098;49.448;7.904;2023-09-08T00:29:11;8.07;;;6.60;;
46391;SDS011;32098;49.448;7.904;2023-09-08T00:31:38;9.48;;;6.93;;
46391;SDS011;32098;49.448;7.904;2023-09-08T00:34:05;7.40;;;6.65;;
46391;SDS011;32098;49.448;7.904;2023-09-08T00:36:33;6.70;;;6.05;;
46391;SDS011;32098;49.448;7.904;2023-09-08T00:38:59;6.85;;;6.07;;
46391;SDS011;32098;49.448;7.904;2023-09-08T00:41:27;9.57;;;6.32;;
46391;SDS011;32098;49.448;7.904;2023-09-08T00:43:53;7.28;;;6.57;;
46391;SDS011;32098;49.448;7.904;2023-09-08T00:46:22;10.65;;;6.55;;
46391;SDS011;32098;49.448;7.904;2023-09-08T00:48:49;10.27;;;6.85;;
46391;SDS011;32098;49.448;7.904;2023-09-08T00:51:15;7.22;;;6.35;;
46391;SDS011;32098;49.448;7.904;2023-09-08T00:53:42;8.00;;;6.00;;
46391;SDS011;32098;49.448;7.904;2023-09-08T00:56:09;8.23;;;6.78;;
46391;SDS011;32098;49.448;7.904;2023-09-08T00:58:36;7.85;;;6.00;;
46391;SDS011;32098;49.448;7.904;2023-09-08T01:01:04;9.13;;;6.30;;
46391;SDS011;32098;49.448;7.904;2023-09-08T01:03:32;7.28;;;6.38;;
46391;SDS011;32098;49.448;7.904;2023-09-08T01:06:00;7.38;;;6.13;;
46391;SDS011;32098;49.448;7.904;2023-09-08T01:08:27;7.25;;;6.50;;
46391;SDS011;32098;49.448;7.904;2023-09-08T01:10:54;7.07;;;6.03;;
46391;SDS011;32098;49.448;7.904;2023-09-08T01:13:21;7.20;;;6.28;;
46391;SDS011;32098;49.448;7.904;2023-09-08T01:15:48;8.32;;;6.40;;
46391;SDS011;32098;49.448;7.904;2023-09-08T01:18:15;6.90;;;5.93;;
46391;SDS011;32098;49.448;7.904;2023-09-08T01:20:55;9.10;;;7.00;;
46391;SDS011;32098;49.448;7.904;2023-09-08T01:26:25;7.80;;;6.07;;
46391;SDS011;32098;49.448;7.904;2023-09-08T01:28:56;7.32;;;6.22;;
46391;SDS011;32098;49.448;7.904;2023-09-08T01:31:23;8.00;;;6.38;;
46391;SDS011;32098;49.448;7.904;2023-09-08T01:33:50;8.48;;;6.60;;
46391;SDS011;32098;49.448;7.904;2023-09-08T01:36:17;7.10;;;6.20;;
46391;SDS011;32098;49.448;7.904;2023-09-08T01:38:44;6.75;;;6.05;;
46391;SDS011;32098;49.448;7.904;2023-09-08T01:41:11;6.95;;;5.88;;
46391;SDS011;32098;49.448;7.904;2023-09-08T01:43:38;6.63;;;6.03;;
46391;SDS011;32098;49.448;7.904;2023-09-08T01:46:05;7.57;;;6.22;;
46391;SDS011;32098;49.448;7.904;2023-09-08T01:48:32;7.85;;;6.03;;
46391;SDS011;32098;49.448;7.904;2023-09-08T01:50:59;6.20;;;5.57;;
46391;SDS011;32098;49.448;7.904;2023-09-08T01:53:26;7.53;;;6.40;;
46391;SDS011;32098;49.448;7.904;2023-09-08T01:55:52;7.97;;;5.78;;
46391;SDS011;32098;49.448;7.904;2023-09-08T01:58:19;7.05;;;6.18;;
46391;SDS011;32098;49.448;7.904;2023-09-08T02:00:51;7.43;;;6.57;;
46391;SDS011;32098;49.448;7.904;2023-09-08T02:03:18;7.05;;;6.20;;
46391;SDS011;32098;49.448;7.904;2023-09-08T02:05:45;6.55;;;5.70;;
46391;SDS011;32098;49.448;7.904;2023-09-08T02:08:12;6.57;;;5.75;;
46391;SDS011;32098;49.448;7.904;2023-09-08T02:10:39;6.43;;;5.82;;
46391;SDS011;32098;49.448;7.904;2023-09-08T02:13:06;7.35;;;5.95;;
46391;SDS011;32098;49.448;7.904;2023-09-08T02:15:34;7.15;;;6.32;;
46391;SDS011;32098;49.448;7.904;2023-09-08T02:18:02;8.55;;;6.47;;
46391;SDS011;32098;49.448;7.904;2023-09-08T02:20:29;7.18;;;6.25;;
46391;SDS011;32098;49.448;7.904;2023-09-08T02:22:57;7.13;;;6.43;;
46391;SDS011;32098;49.448;7.904;2023-09-08T02:25:24;8.73;;;6.30;;
46391;SDS011;32098;49.448;7.904;2023-09-08T02:27:51;8.60;;;6.22;;
46391;SDS011;32098;49.448;7.904;2023-09-08T02:30:18;7.57;;;6.10;;
46391;SDS011;32098;49.448;7.904;2023-09-08T02:32:44;7.38;;;6.40;;
46391;SDS011;32098;49.448;7.904;2023-09-08T02:35:13;6.93;;;6.32;;
46391;SDS011;32098;49.448;7.904;2023-09-08T02:37:40;7.43;;;6.47;;
46391;SDS011;32098;49.448;7.904;2023-09-08T02:40:07;7.43;;;5.72;;
46391;SDS011;32098;49.448;7.904;2023-09-08T02:42:35;7.03;;;5.80;;
46391;SDS011;32098;49.448;7.904;2023-09-08T02:45:02;7.07;;;6.05;;
46391;SDS011;32098;49.448;7.904;2023-09-08T02:47:28;7.53;;;6.30;;
46391;SDS011;32098;49.448;7.904;2023-09-08T02:49:57;7.13;;;6.43;;
46391;SDS011;32098;49.448;7.904;2023-09-08T02:52:24;8.75;;;7.00;;
46391;SDS011;32098;49.448;7.904;2023-09-08T02:54:51;8.73;;;6.80;;
46391;SDS011;32098;49.448;7.904;2023-09-08T02:57:17;7.97;;;6.40;;
46391;SDS011;32098;49.448;7.904;2023-09-08T02:59:48;8.20;;;6.13;;
46391;SDS011;32098;49.448;7.904;2023-09-08T03:02:16;7.13;;;6.28;;
46391;SDS011;32098;49.448;7.904;2023-09-08T03:04:43;7.30;;;6.32;;
46391;SDS011;32098;49.448;7.904;2023-09-08T03:07:10;7.15;;;6.35;;
46391;SDS011;32098;49.448;7.904;2023-09-08T03:09:37;7.05;;;6.35;;
46391;SDS011;32098;49.448;7.904;2023-09-08T03:12:04;6.90;;;6.20;;
46391;SDS011;32098;49.448;7.904;2023-09-08T03:14:31;7.03;;;6.32;;
46391;SDS011;32098;49.448;7.904;2023-09-08T03:16:57;8.50;;;6.40;;
46391;SDS011;32098;49.448;7.904;2023-09-08T03:19:24;6.75;;;6.15;;
46391;SDS011;32098;49.448;7.904;2023-09-08T03:21:50;8.35;;;6.72;;
46391;SDS011;32098;49.448;7.904;2023-09-08T03:24:17;6.65;;;5.80;;
46391;SDS011;32098;49.448;7.904;2023-09-08T03:26:43;7.55;;;5.97;;
46391;SDS011;32098;49.448;7.904;2023-09-08T03:29:10;7.22;;;6.13;;
46391;SDS011;32098;49.448;7.904;2023-09-08T03:31:37;8.98;;;6.32;;
46391;SDS011;32098;49.448;7.904;2023-09-08T03:34:04;7.65;;;6.55;;
46391;SDS011;32098;49.448;7.904;2023-09-08T03:36:32;8.70;;;6.45;;
46391;SDS011;32098;49.448;7.904;2023-09-08T03:39:02;6.32;;;5.68;;
46391;SDS011;32098;49.448;7.904;2023-09-08T03:41:29;8.07;;;6.00;;
46391;SDS011;32098;49.448;7.904;2023-09-08T03:43:56;6.72;;;6.07;;
46391;SDS011;32098;49.448;7.904;2023-09-08T03:46:23;7.60;;;5.50;;
46391;SDS011;32098;49.448;7.904;2023-09-08T03:48:51;6.53;;;5.50;;
46391;SDS011;32098;49.448;7.904;2023-09-08T03:51:20;8.10;;;6.13;;
46391;SDS011;32098;49.448;7.904;2023-09-08T03:53:47;8.67;;;6.03;;
46391;SDS011;32098;49.448;7.904;2023-09-08T03:56:13;7.43;;;5.97;;
46391;SDS011;32098;49.448;7.904;2023-09-08T03:58:40;9.32;;;7.18;;
46391;SDS011;32098;49.448;7.904;2023-09-08T04:01:07;7.90;;;5.72;;
46391;SDS011;32098;49.448;7.904;2023-09-08T04:03:33;7.77;;;6.10;;
46391;SDS011;32098;49.448;7.904;2023-09-08T04:06:01;7.77;;;6.70;;
46391;SDS011;32098;49.448;7.904;2023-09-08T04:08:28;6.90;;;6.17;;
46391;SDS011;32098;49.448;7.904;2023-09-08T04:10:55;7.80;;;5.73;;
46391;SDS011;32098;49.448;7.904;2023-09-08T04:13:21;7.97;;;6.27;;
46391;SDS011;32098;49.448;7.904;2023-09-08T04:15:48;6.73;;;5.77;;
46391;SDS011;32098;49.448;7.904;2023-09-08T04:18:14;6.90;;;5.97;;
46391;SDS011;32098;49.448;7.904;2023-09-08T04:20:41;6.73;;;5.77;;
46391;SDS011;32098;49.448;7.904;2023-09-08T04:23:08;7.73;;;6.50;;
46391;SDS011;32098;49.448;7.904;2023-09-08T04:25:35;7.87;;;6.23;;
46391;SDS011;32098;49.448;7.904;2023-09-08T04:28:03;8.30;;;6.53;;
46391;SDS011;32098;49.448;7.904;2023-09-08T04:30:32;7.10;;;6.17;;
46391;SDS011;32098;49.448;7.904;2023-09-08T04:32:58;7.80;;;6.80;;
46391;SDS011;32098;49.448;7.904;2023-09-08T04:35:25;5.87;;;5.27;;
46391;SDS011;32098;49.448;7.904;2023-09-08T04:37:52;6.73;;;6.03;;
46391;SDS011;32098;49.448;7.904;2023-09-08T04:40:20;6.47;;;5.73;;
46391;SDS011;32098;49.448;7.904;2023-09-08T04:42:46;6.30;;;5.70;;
46391;SDS011;32098;49.448;7.904;2023-09-08T04:45:13;7.20;;;6.10;;
46391;SDS011;32098;49.448;7.904;2023-09-08T04:47:40;6.53;;;5.40;;
46391;SDS011;32098;49.448;7.904;2023-09-08T04:50:07;5.97;;;5.20;;
46391;SDS011;32098;49.448;7.904;2023-09-08T04:52:35;6.97;;;5.07;;
46391;SDS011;32098;49.448;7.904;2023-09-08T04:55:02;6.63;;;5.47;;
46391;SDS011;32098;49.448;7.904;2023-09-08T04:57:30;7.70;;;5.72;;
46391;SDS011;32098;49.448;7.904;2023-09-08T04:59:58;6.80;;;6.07;;
46391;SDS011;32098;49.448;7.904;2023-09-08T05:02:25;7.78;;;6.07;;
46391;SDS011;32098;49.448;7.904;2023-09-08T05:04:52;7.28;;;6.50;;
46391;SDS011;32098;49.448;7.904;2023-09-08T05:07:19;11.70;;;6.33;;
46391;SDS011;32098;49.448;7.904;2023-09-08T05:09:46;6.47;;;5.88;;
46391;SDS011;32098;49.448;7.904;2023-09-08T05:12:13;7.05;;;5.68;;
46391;SDS011;32098;49.448;7.904;2023-09-08T05:14:40;10.37;;;5.87;;
46391;SDS011;32098;49.448;7.904;2023-09-08T05:17:08;7.87;;;5.90;;
46391;SDS011;32098;49.448;7.904;2023-09-08T05:19:34;6.33;;;5.43;;
46391;SDS011;32098;49.448;7.904;2023-09-08T05:22:01;7.60;;;5.90;;
46391;SDS011;32098;49.448;7.904;2023-09-08T05:24:29;8.03;;;6.67;;
46391;SDS011;32098;49.448;7.904;2023-09-08T05:26:56;7.33;;;6.17;;
46391;SDS011;32098;49.448;7.904;2023-09-08T05:29:23;8.00;;;6.30;;
46391;SDS011;32098;49.448;7.904;2023-09-08T05:31:50;6.97;;;6.37;;
46391;SDS011;32098;49.448;7.904;2023-09-08T05:34:18;7.30;;;6.60;;
46391;SDS011;32098;49.448;7.904;2023-09-08T05:36:44;8.87;;;6.80;;
46391;SDS011;32098;49.448;7.904;2023-09-08T05:39:13;7.30;;;6.60;;
46391;SDS011;32098;49.448;7.904;2023-09-08T05:41:41;7.47;;;6.33;;
46391;SDS011;32098;49.448;7.904;2023-09-08T05:44:08;8.13;;;6.50;;
46391;SDS011;32098;49.448;7.904;2023-09-08T05:46:34;6.78;;;6.13;;
46391;SDS011;32098;49.448;7.904;2023-09-08T05:49:02;6.93;;;6.25;;
46391;SDS011;32098;49.448;7.904;2023-09-08T05:51:30;6.57;;;5.90;;
46391;SDS011;32098;49.448;7.904;2023-09-08T05:53:58;7.13;;;5.75;;
46391;SDS011;32098;49.448;7.904;2023-09-08T05:56:26;6.43;;;5.82;;
46391;SDS011;32098;49.448;7.904;2023-09-08T05:58:56;7.03;;;5.60;;
46391;SDS011;32098;49.448;7.904;2023-09-08T06:01:23;6.53;;;5.93;;
46391;SDS011;32098;49.448;7.904;2023-09-08T06:03:50;8.35;;;6.43;;
46391;SDS011;32098;49.448;7.904;2023-09-08T06:06:18;7.00;;;6.30;;
46391;SDS011;32098;49.448;7.904;2023-09-08T06:08:44;6.47;;;5.88;;
46391;SDS011;32098;49.448;7.904;2023-09-08T06:11:11;7.28;;;5.72;;
46391;SDS011;32098;49.448;7.904;2023-09-08T06:13:39;7.63;;;6.22;;
46391;SDS011;32098;49.448;7.904;2023-09-08T06:16:06;6.55;;;5.85;;
46391;SDS011;32098;49.448;7.904;2023-09-08T06:18:34;6.15;;;5.65;;
46391;SDS011;32098;49.448;7.904;2023-09-08T06:21:09;8.43;;;5.70;;
46391;SDS011;32098;49.448;7.904;2023-09-08T06:23:36;6.85;;;5.47;;
46391;SDS011;32098;49.448;7.904;2023-09-08T06:26:04;8.00;;;5.57;;
46391;SDS011;32098;49.448;7.904;2023-09-08T06:28:32;6.90;;;5.47;;
46391;SDS011;32098;49.448;7.904;2023-09-08T06:30:59;7.25;;;6.32;;
46391;SDS011;32098;49.448;7.904;2023-09-08T06:33:26;9.50;;;6.10;;
46391;SDS011;32098;49.448;7.904;2023-09-08T06:35:53;7.63;;;6.40;;
46391;SDS011;32098;49.448;7.904;2023-09-08T06:38:21;8.15;;;6.30;;
46391;SDS011;32098;49.448;7.904;2023-09-08T06:40:48;6.75;;;6.15;;
46391;SDS011;32098;49.448;7.904;2023-09-08T06:43:15;8.80;;;6.25;;
46391;SDS011;32098;49.448;7.904;2023-09-08T06:45:49;8.73;;;6.05;;
46391;SDS011;32098;49.448;7.904;2023-09-08T06:48:16;6.47;;;5.10;;
46391;SDS011;32098;49.448;7.904;2023-09-08T06:50:43;6.07;;;5.47;;
46391;SDS011;32098;49.448;7.904;2023-09-08T06:53:09;5.93;;;5.32;;
46391;SDS011;32098;49.448;7.904;2023-09-08T06:55:37;5.90;;;5.07;;
46391;SDS011;32098;49.448;7.904;2023-09-08T06:58:04;6.47;;;5.78;;
46391;SDS011;32098;49.448;7.904;2023-09-08T07:00:32;6.03;;;5.43;;
46391;SDS011;32098;49.448;7.904;2023-09-08T07:02:58;6.13;;;5.45;;
46391;SDS011;32098;49.448;7.904;2023-09-08T07:05:25;6.22;;;5.53;;
46391;SDS011;32098;49.448;7.904;2023-09-08T07:07:52;7.40;;;5.80;;
46391;SDS011;32098;49.448;7.904;2023-09-08T07:10:19;6.30;;;5.45;;
46391;SDS011;32098;49.448;7.904;2023-09-08T07:12:46;6.35;;;5.75;;
46391;SDS011;32098;49.448;7.904;2023-09-08T07:15:14;6.68;;;5.75;;
46391;SDS011;32098;49.448;7.904;2023-09-08T07:17:41;8.43;;;6.00;;
46391;SDS011;32098;49.448;7.904;2023-09-08T07:20:08;6.38;;;5.65;;
46391;SDS011;32098;49.448;7.904;2023-09-08T07:22:36;7.13;;;5.63;;
46391;SDS011;32098;49.448;7.904;2023-09-08T07:25:03;7.72;;;5.57;;
46391;SDS011;32098;49.448;7.904;2023-09-08T07:27:30;8.02;;;5.82;;
46391;SDS011;32098;49.448;7.904;2023-09-08T07:29:56;5.57;;;5.00;;
46391;SDS011;32098;49.448;7.904;2023-09-08T07:32:23;6.30;;;5.50;;
46391;SDS011;32098;49.448;7.904;2023-09-08T07:34:51;5.70;;;5.18;;
46391;SDS011;32098;49.448;7.904;2023-09-08T07:37:22;5.85;;;5.30;;
46391;SDS011;32098;49.448;7.904;2023-09-08T07:39:50;7.72;;;4.97;;
46391;SDS011;32098;49.448;7.904;2023-09-08T07:42:18;8.10;;;5.30;;
46391;SDS011;32098;49.448;7.904;2023-09-08T07:44:45;5.78;;;5.18;;
46391;SDS011;32098;49.448;7.904;2023-09-08T07:47:11;5.95;;;5.10;;
46391;SDS011;32098;49.448;7.904;2023-09-08T07:49:38;5.20;;;4.70;;
46391;SDS011;32098;49.448;7.904;2023-09-08T07:52:05;7.18;;;4.93;;
46391;SDS011;32098;49.448;7.904;2023-09-08T07:54:33;5.22;;;4.72;;
46391;SDS011;32098;49.448;7.904;2023-09-08T07:57:00;6.97;;;5.00;;
46391;SDS011;32098;49.448;7.904;2023-09-08T07:59:26;5.68;;;5.07;;
46391;SDS011;32098;49.448;7.904;2023-09-08T08:01:53;5.55;;;4.85;;
46391;SDS011;32098;49.448;7.904;2023-09-08T08:04:20;9.20;;;5.32;;
46391;SDS011;32098;49.448;7.904;2023-09-08T08:06:47;6.10;;;5.47;;
46391;SDS011;32098;49.448;7.904;2023-09-08T08:09:14;6.25;;;4.85;;
46391;SDS011;32098;49.448;7.904;2023-09-08T08:11:41;5.85;;;4.88;;
46391;SDS011;32098;49.448;7.904;2023-09-08T08:14:08;5.18;;;4.65;;
46391;SDS011;32098;49.448;7.904;2023-09-08T08:16:34;4.93;;;4.22;;
46391;SDS011;32098;49.448;7.904;2023-09-08T08:19:02;6.38;;;4.80;;
46391;SDS011;32098;49.448;7.904;2023-09-08T08:21:29;5.38;;;4.88;;
46391;SDS011;32098;49.448;7.904;2023-09-08T08:23:57;4.97;;;4.53;;
46391;SDS011;32098;49.448;7.904;2023-09-08T08:26:24;6.05;;;5.30;;
46391;SDS011;32098;49.448;7.904;2023-09-08T08:28:53;7.40;;;4.78;;
46391;SDS011;32098;49.448;7.904;2023-09-08T08:31:20;5.05;;;4.65;;
46391;SDS011;32098;49.448;7.904;2023-09-08T08:33:46;6.50;;;5.32;;
46391;SDS011;32098;49.448;7.904;2023-09-08T08:36:13;7.32;;;4.95;;
46391;SDS011;32098;49.448;7.904;2023-09-08T08:38:40;6.82;;;5.05;;
46391;SDS011;32098;49.448;7.904;2023-09-08T08:41:07;6.85;;;5.10;;
46391;SDS011;32098;49.448;7.904;2023-09-08T08:43:33;7.13;;;4.85;;
46391;SDS011;32098;49.448;7.904;2023-09-08T08:46:01;6.75;;;4.68;;
46391;SDS011;32098;49.448;7.904;2023-09-08T08:48:28;5.20;;;4.70;;
46391;SDS011;32098;49.448;7.904;2023-09-08T08:50:58;6.13;;;5.32;;
46391;SDS011;32098;49.448;7.904;2023-09-08T08:53:27;6.38;;;5.07;;
46391;SDS011;32098;49.448;7.904;2023-09-08T08:55:55;4.93;;;4.47;;
46391;SDS011;32098;49.448;7.904;2023-09-08T08:58:25;7.82;;;4.50;;
46391;SDS011;32098;49.448;7.904;2023-09-08T09:00:54;8.40;;;5.25;;
46391;SDS011;32098;49.448;7.904;2023-09-08T09:03:24;4.82;;;4.30;;
46391;SDS011;32098;49.448;7.904;2023-09-08T09:05:53;5.63;;;4.72;;
46391;SDS011;32098;49.448;7.904;2023-09-08T09:08:20;5.35;;;4.38;;
46391;SDS011;32098;49.448;7.904;2023-09-08T09:10:48;6.63;;;4.50;;
46391;SDS011;32098;49.448;7.904;2023-09-08T09:13:15;5.70;;;4.82;;
46391;SDS011;32098;49.448;7.904;2023-09-08T09:15:42;5.80;;;5.20;;
46391;SDS011;32098;49.448;7.904;2023-09-08T09:18:09;5.63;;;4.10;;
46391;SDS011;32098;49.448;7.904;2023-09-08T09:20:36;4.97;;;4.57;;
46391;SDS011;32098;49.448;7.904;2023-09-08T09:23:02;5.45;;;4.95;;
46391;SDS011;32098;49.448;7.904;2023-09-08T09:25:30;4.90;;;4.40;;
46391;SDS011;32098;49.448;7.904;2023-09-08T09:28:01;5.55;;;4.30;;
46391;SDS011;32098;49.448;7.904;2023-09-08T09:33:15;4.70;;;4.20;;
46391;SDS011;32098;49.448;7.904;2023-09-08T09:35:52;5.07;;;4.53;;
46391;SDS011;32098;49.448;7.904;2023-09-08T09:38:20;5.45;;;4.93;;
46391;SDS011;32098;49.448;7.904;2023-09-08T09:40:48;6.22;;;5.00;;
46391;SDS011;32098;49.448;7.904;2023-09-08T09:43:16;5.25;;;4.47;;
46391;SDS011;32098;49.448;7.904;2023-09-08T09:45:43;5.97;;;4.68;;
46391;SDS011;32098;49.448;7.904;2023-09-08T09:48:11;4.72;;;4.30;;
46391;SDS011;32098;49.448;7.904;2023-09-08T09:50:39;5.20;;;4.75;;
46391;SDS011;32098;49.448;7.904;2023-09-08T09:53:08;5.10;;;4.63;;
46391;SDS011;32098;49.448;7.904;2023-09-08T09:55:38;5.65;;;4.80;;
46391;SDS011;32098;49.448;7.904;2023-09-08T09:58:06;5.45;;;4.70;;
46391;SDS011;32098;49.448;7.904;2023-09-08T10:00:34;5.93;;;4.75;;
46391;SDS011;32098;49.448;7.904;2023-09-08T10:03:02;4.78;;;4.38;;
46391;SDS011;32098;49.448;7.904;2023-09-08T10:05:30;5.25;;;4.75;;
46391;SDS011;32098;49.448;7.904;2023-09-08T10:07:57;5.20;;;4.30;;
46391;SDS011;32098;49.448;7.904;2023-09-08T10:10:24;5.68;;;4.93;;
46391;SDS011;32098;49.448;7.904;2023-09-08T10:12:54;8.00;;;4.90;;
46391;SDS011;32098;49.448;7.904;2023-09-08T10:15:23;5.03;;;4.63;;
46391;SDS011;32098;49.448;7.904;2023-09-08T10:17:54;6.15;;;4.78;;
46391;SDS011;32098;49.448;7.904;2023-09-08T10:20:23;4.88;;;4.30;;
46391;SDS011;32098;49.448;7.904;2023-09-08T10:23:06;5.28;;;4.78;;
46391;SDS011;32098;49.448;7.904;2023-09-08T10:25:40;5.18;;;4.68;;
46391;SDS011;32098;49.448;7.904;2023-09-08T10:28:12;5.13;;;4.63;;
46391;SDS011;32098;49.448;7.904;2023-09-08T10:30:39;5.07;;;4.57;;
46391;SDS011;32098;49.448;7.904;2023-09-08T10:33:07;5.35;;;4.78;;
46391;SDS011;32098;49.448;7.904;2023-09-08T10:35:35;5.18;;;4.68;;
46391;SDS011;32098;49.448;7.904;2023-09-08T10:40:47;4.75;;;4.35;;
46391;SDS011;32098;49.448;7.904;2023-09-08T10:43:14;5.03;;;4.57;;
46391;SDS011;32098;49.448;7.904;2023-09-08T10:45:40;7.15;;;4.93;;
46391;SDS011;32098;49.448;7.904;2023-09-08T10:48:10;5.25;;;4.57;;
46391;SDS011;32098;49.448;7.904;2023-09-08T10:50:39;7.05;;;4.82;;
46391;SDS011;32098;49.448;7.904;2023-09-08T10:55:45;6.25;;;5.07;;
46391;SDS011;32098;49.448;7.904;2023-09-08T10:58:32;5.50;;;5.00;;
46391;SDS011;32098;49.448;7.904;2023-09-08T11:01:02;5.80;;;5.30;;
46391;SDS011;32098;49.448;7.904;2023-09-08T11:06:04;5.90;;;5.05;;
46391;SDS011;32098;49.448;7.904;2023-09-08T11:08:37;5.03;;;4.57;;
46391;SDS011;32098;49.448;7.904;2023-09-08T11:11:05;5.75;;;5.07;;
46391;SDS011;32098;49.448;7.904;2023-09-08T11:13:32;6.35;;;5.05;;
46391;SDS011;32098;49.448;7.904;2023-09-08T11:16:01;5.38;;;4.93;;
46391;SDS011;32098;49.448;7.904;2023-09-08T11:18:29;5.75;;;4.97;;
46391;SDS011;32098;49.448;7.904;2023-09-08T11:20:57;5.57;;;5.00;;
46391;SDS011;32098;49.448;7.904;2023-09-08T11:23:24;5.25;;;4.85;;
46391;SDS011;32098;49.448;7.904;2023-09-08T11:25:52;5.22;;;4.72;;
46391;SDS011;32098;49.448;7.904;2023-09-08T11:28:22;5.13;;;4.72;;
46391;SDS011;32098;49.448;7.904;2023-09-08T11:30:50;5.45;;;4.90;;
46391;SDS011;32098;49.448;7.904;2023-09-08T11:33:18;5.95;;;4.70;;
46391;SDS011;32098;49.448;7.904;2023-09-08T11:35:51;5.32;;;4.82;;
46391;SDS011;32098;49.448;7.904;2023-09-08T11:38:25;5.57;;;5.07;;
46391;SDS011;32098;49.448;7.904;2023-09-08T11:40:53;5.05;;;4.60;;
46391;SDS011;32098;49.448;7.904;2023-09-08T11:43:21;5.60;;;5.10;;
46391;SDS011;32098;49.448;7.904;2023-09-08T11:45:47;4.93;;;4.53;;
46391;SDS011;32098;49.448;7.904;2023-09-08T11:48:15;5.20;;;4.80;;
46391;SDS011;32098;49.448;7.904;2023-09-08T11:50:42;5.25;;;4.75;;
46391;SDS011;32098;49.448;7.904;2023-09-08T11:53:11;5.15;;;4.68;;
46391;SDS011;32098;49.448;7.904;2023-09-08T11:55:37;5.30;;;4.80;;
46391;SDS011;32098;49.448;7.904;2023-09-08T11:58:04;4.93;;;4.50;;
46391;SDS011;32098;49.448;7.904;2023-09-08T12:00:32;5.65;;;5.03;;
46391;SDS011;32098;49.448;7.904;2023-09-08T12:03:09;5.40;;;4.90;;
46391;SDS011;32098;49.448;7.904;2023-09-08T12:05:40;5.15;;;4.75;;
46391;SDS011;32098;49.448;7.904;2023-09-08T12:08:08;5.40;;;5.00;;
46391;SDS011;32098;49.448;7.904;2023-09-08T12:10:41;5.88;;;5.20;;
46391;SDS011;32098;49.448;7.904;2023-09-08T12:13:09;5.63;;;5.13;;
46391;SDS011;32098;49.448;7.904;2023-09-08T12:15:37;5.35;;;4.85;;
46391;SDS011;32098;49.448;7.904;2023-09-08T12:18:06;5.65;;;5.15;;
46391;SDS011;32098;49.448;7.904;2023-09-08T12:20:34;6.05;;;5.45;;
46391;SDS011;32098;49.448;7.904;2023-09-08T12:23:03;5.82;;;4.97;;
46391;SDS011;32098;49.448;7.904;2023-09-08T12:25:33;5.75;;;5.22;;
46391;SDS011;32098;49.448;7.904;2023-09-08T12:28:04;5.65;;;5.18;;
46391;SDS011;32098;49.448;7.904;2023-09-08T12:30:31;6.38;;;5.35;;
46391;SDS011;32098;49.448;7.904;2023-09-08T12:33:00;6.03;;;5.13;;
46391;SDS011;32098;49.448;7.904;2023-09-08T12:35:28;6.65;;;5.20;;
46391;SDS011;32098;49.448;7.904;2023-09-08T12:37:58;8.48;;;5.47;;
46391;SDS011;32098;49.448;7.904;2023-09-08T12:40:26;7.93;;;6.13;;
46391;SDS011;32098;49.448;7.904;2023-09-08T12:42:54;5.40;;;5.00;;
46391;SDS011;32098;49.448;7.904;2023-09-08T12:45:33;5.70;;;5.20;;
46391;SDS011;32098;49.448;7.904;2023-09-08T12:48:00;5.30;;;4.80;;
46391;SDS011;32098;49.448;7.904;2023-09-08T12:50:29;5.47;;;4.97;;
46391;SDS011;32098;49.448;7.904;2023-09-08T12:52:57;5.60;;;5.13;;
46391;SDS011;32098;49.448;7.904;2023-09-08T12:55:23;6.13;;;5.05;;
46391;SDS011;32098;49.448;7.904;2023-09-08T12:57:50;6.38;;;5.10;;
46391;SDS011;32098;49.448;7.904;2023-09-08T13:00:21;5.80;;;5.20;;
46391;SDS011;32098;49.448;7.904;2023-09-08T13:02:49;6.00;;;5.25;;
46391;SDS011;32098;49.448;7.904;2023-09-08T13:05:16;8.32;;;5.15;;
46391;SDS011;32098;49.448;7.904;2023-09-08T13:07:43;5.57;;;5.07;;
46391;SDS011;32098;49.448;7.904;2023-09-08T13:10:11;5.47;;;4.97;;
46391;SDS011;32098;49.448;7.904;2023-09-08T13:12:38;5.82;;;5.18;;
46391;SDS011;32098;49.448;7.904;2023-09-08T13:15:05;6.53;;;5.60;;
46391;SDS011;32098;49.448;7.904;2023-09-08T13:17:32;6.43;;;5.80;;
46391;SDS011;32098;49.448;7.904;2023-09-08T13:19:59;5.95;;;5.45;;
46391;SDS011;32098;49.448;7.904;2023-09-08T13:22:25;6.43;;;5.43;;
46391;SDS011;32098;49.448;7.904;2023-09-08T13:24:52;10.38;;;5.10;;
46391;SDS011;32098;49.448;7.904;2023-09-08T13:27:18;6.82;;;5.13;;
46391;SDS011;32098;49.448;7.904;2023-09-08T13:29:45;5.60;;;5.07;;
46391;SDS011;32098;49.448;7.904;2023-09-08T13:32:12;5.40;;;4.90;;
46391;SDS011;32098;49.448;7.904;2023-09-08T13:34:38;7.28;;;5.50;;
46391;SDS011;32098;49.448;7.904;2023-09-08T13:37:05;6.72;;;5.45;;
46391;SDS011;32098;49.448;7.904;2023-09-08T13:39:32;5.68;;;5.18;;
46391;SDS011;32098;49.448;7.904;2023-09-08T13:41:59;5.85;;;5.35;;
46391;SDS011;32098;49.448;7.904;2023-09-08T13:44:27;6.10;;;5.47;;
46391;SDS011;32098;49.448;7.904;2023-09-08T13:46:54;5.70;;;5.20;;
46391;SDS011;32098;49.448;7.904;2023-09-08T13:49:22;6.00;;;5.40;;
46391;SDS011;32098;49.448;7.904;2023-09-08T13:51:51;5.78;;;5.28;;
46391;SDS011;32098;49.448;7.904;2023-09-08T13:54:22;5.40;;;4.90;;
46391;SDS011;32098;49.448;7.904;2023-09-08T13:56:58;7.70;;;5.55;;
46391;SDS011;32098;49.448;7.904;2023-09-08T13:59:27;5.68;;;5.18;;
46391;SDS011;32098;49.448;7.904;2023-09-08T14:02:01;6.57;;;5.68;;
46391;SDS011;32098;49.448;7.904;2023-09-08T14:04:49;5.80;;;5.20;;
46391;SDS011;32098;49.448;7.904;2023-09-08T14:07:19;6.07;;;5.20;;
46391;SDS011;32098;49.448;7.904;2023-09-08T14:09:53;6.50;;;5.30;;
46391;SDS011;32098;49.448;7.904;2023-09-08T14:12:31;5.75;;;5.20;;
46391;SDS011;32098;49.448;7.904;2023-09-08T14:15:01;5.80;;;5.20;;
46391;SDS011;32098;49.448;7.904;2023-09-08T14:17:29;5.60;;;5.10;;
46391;SDS011;32098;49.448;7.904;2023-09-08T14:19:56;6.88;;;5.60;;
46391;SDS011;32098;49.448;7.904;2023-09-08T14:22:22;8.02;;;5.35;;
46391;SDS011;32098;49.448;7.904;2023-09-08T14:24:49;6.85;;;5.43;;
46391;SDS011;32098;49.448;7.904;2023-09-08T14:27:16;6.88;;;5.00;;
46391;SDS011;32098;49.448;7.904;2023-09-08T14:29:42;6.13;;;5.00;;
46391;SDS011;32098;49.448;7.904;2023-09-08T14:32:09;5.75;;;5.25;;
46391;SDS011;32098;49.448;7.904;2023-09-08T14:34:35;7.22;;;5.32;;
46391;SDS011;32098;49.448;7.904;2023-09-08T14:37:02;5.80;;;5.20;;
46391;SDS011;32098;49.448;7.904;2023-09-08T14:39:31;8.60;;;5.60;;
46391;SDS011;32098;49.448;7.904;2023-09-08T14:41:58;5.57;;;5.03;;
46391;SDS011;32098;49.448;7.904;2023-09-08T14:44:24;5.93;;;5.07;;
46391;SDS011;32098;49.448;7.904;2023-09-08T14:46:51;5.72;;;5.22;;
46391;SDS011;32098;49.448;7.904;2023-09-08T14:49:18;7.38;;;4.75;;
46391;SDS011;32098;49.448;7.904;2023-09-08T14:51:44;6.22;;;5.40;;
46391;SDS011;32098;49.448;7.904;2023-09-08T14:54:11;5.50;;;4.95;;
46391;SDS011;32098;49.448;7.904;2023-09-08T14:56:38;5.72;;;5.22;;
46391;SDS011;32098;49.448;7.904;2023-09-08T14:59:04;5.93;;;5.25;;
46391;SDS011;32098;49.448;7.904;2023-09-08T15:01:31;7.00;;;5.63;;
46391;SDS011;32098;49.448;7.904;2023-09-08T15:03:57;7.43;;;5.60;;
46391;SDS011;32098;49.448;7.904;2023-09-08T15:06:24;5.97;;;5.40;;